Погода Роборена 2 недели

Санта-Крус, Боливия

28 февраля-12 марта
  • 28февраля
    Сегодня
    +22°
    +35°
    Ясно и безоблачно
    ВремяПогодаТемператураВлажностьДавлениеВетер, м/сВероятность осадков
    02:00Ясно и безоблачно+25°C83 %732 мм2.3 м/с5 %
    05:00Ясно и безоблачно+23°C85 %732 мм3.1 м/с5 %
    08:00Ясно и безоблачно+25°C75 %733 мм1.2 м/с5 %
    11:00Ясно и безоблачно+30°C58 %733 мм3.3 м/с13 %
    14:00Ясно и безоблачно+33°C51 %731 мм4.4 м/с8 %
    17:00Ясно и безоблачно+34°C52 %730 мм4.2 м/с10 %
    20:00Ясно и безоблачно+29°C64 %730 мм2.3 м/с5 %
    23:00Практически безоблачно+27°C71 %732 мм1.9 м/с5 %
  • 29февраля
    Четверг
    +24°
    +35°
    Практически безоблачно
    ВремяПогодаТемператураВлажностьДавлениеВетер, м/сВероятность осадков
    02:00Ясно и безоблачно+25°C75 %732 мм2.0 м/с5 %
    05:00Ясно и безоблачно+23°C80 %732 мм2.6 м/с5 %
    08:00Небольшая облачность+25°C70 %734 мм0.7 м/с5 %
    11:00Облачно с прояснениями+30°C55 %734 мм2.9 м/с10 %
    14:00Практически безоблачно+34°C49 %732 мм4.3 м/с16 %
    17:00Ясно и безоблачно+34°C53 %730 мм4.1 м/с7 %
    20:00Ясно и безоблачно+29°C71 %731 мм0.6 м/с2 %
    23:00Ясно и безоблачно+27°C74 %732 мм1.3 м/с4 %
  • 01марта
    Пятница
    +23°
    +34°
    Практически безоблачно
    ВремяПогодаТемператураВлажностьДавлениеВетер, м/сВероятность осадков
    02:00Ясно и безоблачно+26°C72 %732 мм1.9 м/с8 %
    05:00Ясно и безоблачно+25°C72 %732 мм2.0 м/с8 %
    08:00Практически безоблачно+26°C70 %734 мм0.6 м/с19 %
    11:00Практически безоблачно+31°C55 %733 мм2.0 м/с18 %
    14:00Практически безоблачно+33°C53 %732 мм3.4 м/с27 %
    17:00Небольшая облачность+34°C50 %730 мм2.4 м/с8 %
    20:00Ясно и безоблачно+28°C66 %731 мм1.2 м/с7 %
    23:00Ясно и безоблачно+26°C71 %732 мм1.5 м/с10 %
  • 02марта
    Суббота
    +24°
    +37°
    Практически безоблачно
    ВремяПогодаТемператураВлажностьДавлениеВетер, м/сВероятность осадков
    02:00Практически безоблачно+24°C74 %731 мм2.0 м/с6 %
    05:00Практически безоблачно+23°C78 %731 мм2.0 м/с7 %
    08:00Практически безоблачно+27°C68 %733 мм1.3 м/с4 %
    11:00Ясно и безоблачно+32°C52 %733 мм3.7 м/с5 %
    14:00Практически безоблачно+36°C47 %731 мм5.4 м/с5 %
    17:00Ясно и безоблачно+37°C49 %729 мм5.8 м/с5 %
    20:00Ясно и безоблачно+31°C64 %730 мм2.3 м/с4 %
    23:00Ясно и безоблачно+29°C68 %731 мм3.0 м/с5 %
Мы используем cookies
Соглашаюсь